createdAt,value
2019-03-25T00:00:32.259Z,6.64
2019-03-25T00:01:32.232Z,6.68
2019-03-25T00:02:32.223Z,6.64
2019-03-25T00:03:32.213Z,6.65
2019-03-25T00:04:32.199Z,6.75
2019-03-25T00:05:32.196Z,6.73
2019-03-25T00:06:32.176Z,6.65
2019-03-25T00:07:32.172Z,6.78
2019-03-25T00:08:32.159Z,6.78
2019-03-25T00:09:32.156Z,6.67
2019-03-25T00:10:32.145Z,6.68
2019-03-25T00:11:32.138Z,6.68
2019-03-25T00:12:32.122Z,6.52
2019-03-25T00:13:32.109Z,6.55
2019-03-25T00:14:32.097Z,6.50
2019-03-25T00:15:32.087Z,6.43
2019-03-25T00:16:32.073Z,6.50
2019-03-25T00:17:32.071Z,6.42
2019-03-25T00:18:32.047Z,6.53
2019-03-25T00:19:32.054Z,6.38
2019-03-25T00:20:32.042Z,6.34
2019-03-25T00:21:32.023Z,6.47
2019-03-25T00:22:32.015Z,6.45
2019-03-25T00:23:32.006Z,6.50
2019-03-25T00:24:38.606Z,6.42
2019-03-25T00:25:31.984Z,6.38
2019-03-25T00:26:31.976Z,6.40
2019-03-25T00:27:31.959Z,6.45
2019-03-25T00:28:31.953Z,6.46
2019-03-25T00:29:31.939Z,6.42
2019-03-25T00:30:31.932Z,6.42
2019-03-25T00:31:31.922Z,6.37
2019-03-25T00:32:31.908Z,6.38
2019-03-25T00:33:31.896Z,6.38
2019-03-25T00:34:31.890Z,6.38
2019-03-25T00:35:31.879Z,6.40
2019-03-25T00:36:31.861Z,6.34
2019-03-25T00:37:31.860Z,6.37
2019-03-25T00:38:31.852Z,6.40
2019-03-25T00:39:31.829Z,6.42
2019-03-25T00:40:31.828Z,6.38
2019-03-25T00:41:31.812Z,6.47
2019-03-25T00:42:31.798Z,6.49
2019-03-25T00:43:31.795Z,6.50
2019-03-25T00:44:31.786Z,6.37
2019-03-25T00:45:31.774Z,6.40
2019-03-25T00:46:31.761Z,6.50
2019-03-25T00:47:31.751Z,6.53
2019-03-25T00:48:31.742Z,6.40
2019-03-25T00:49:31.728Z,6.38
2019-03-25T00:50:31.717Z,6.50
2019-03-25T00:51:31.710Z,6.40
2019-03-25T00:52:31.708Z,6.42
2019-03-25T00:53:31.690Z,6.38
2019-03-25T00:54:31.678Z,6.38
2019-03-25T00:55:31.671Z,6.61
2019-03-25T00:56:31.668Z,6.53
2019-03-25T00:57:31.650Z,6.57
2019-03-25T00:58:31.638Z,6.61
2019-03-25T00:59:31.634Z,6.50
2019-03-25T01:00:31.617Z,6.53
2019-03-25T01:01:31.601Z,6.53
2019-03-25T01:02:31.599Z,6.63
2019-03-25T01:03:31.585Z,6.55
2019-03-25T01:04:31.580Z,6.65
2019-03-25T01:05:31.564Z,6.61
2019-03-25T01:06:31.555Z,6.65
2019-03-25T01:07:31.545Z,6.65
2019-03-25T01:08:31.540Z,6.68
2019-03-25T01:09:31.524Z,6.67
2019-03-25T01:10:31.512Z,6.67
2019-03-25T01:11:31.500Z,6.64
2019-03-25T01:12:31.495Z,6.65
2019-03-25T01:13:31.489Z,6.65
2019-03-25T01:14:31.474Z,6.67
2019-03-25T01:15:31.470Z,6.52
2019-03-25T01:16:31.465Z,6.57
2019-03-25T01:17:31.451Z,6.56
2019-03-25T01:18:31.433Z,6.56
2019-03-25T01:19:31.419Z,6.56
2019-03-25T01:20:31.414Z,6.56
2019-03-25T01:21:31.399Z,6.56
2019-03-25T01:22:31.387Z,6.56
2019-03-25T01:23:31.390Z,6.52
2019-03-25T01:24:31.371Z,6.56
2019-03-25T01:25:31.362Z,6.42
2019-03-25T01:26:31.361Z,6.49
2019-03-25T01:27:31.341Z,6.52
2019-03-25T01:28:31.334Z,6.57
2019-03-25T01:29:31.326Z,6.55
2019-03-25T01:30:31.332Z,6.49
2019-03-25T01:31:31.299Z,6.42
2019-03-25T01:32:31.290Z,6.45
2019-03-25T01:33:31.286Z,6.47
2019-03-25T01:34:31.277Z,6.40
2019-03-25T01:35:31.258Z,6.38
2019-03-25T01:36:31.249Z,6.42
2019-03-25T01:37:31.251Z,6.40
2019-03-25T01:38:31.242Z,6.47
2019-03-25T01:39:31.216Z,6.38
2019-03-25T01:40:31.202Z,6.34
2019-03-25T01:41:31.207Z,6.30
2019-03-25T01:42:31.178Z,6.32
2019-03-25T01:43:31.191Z,6.32
2019-03-25T01:44:31.165Z,6.16
2019-03-25T01:45:31.148Z,6.21
2019-03-25T01:46:31.147Z,6.18
2019-03-25T01:47:31.139Z,6.12
2019-03-25T01:48:31.172Z,6.18
2019-03-25T01:49:31.110Z,6.19
2019-03-25T01:50:31.112Z,6.15
2019-03-25T01:51:31.104Z,6.15
2019-03-25T01:52:31.083Z,6.16
2019-03-25T01:53:31.067Z,6.06
2019-03-25T01:54:31.057Z,6.11
2019-03-25T01:55:31.046Z,6.06
2019-03-25T01:56:31.041Z,6.03
2019-03-25T01:57:31.024Z,6.00
2019-03-25T01:58:31.026Z,6.03
2019-03-25T01:59:31.000Z,5.97
2019-03-25T02:00:31.003Z,5.98
2019-03-25T02:01:30.991Z,5.97
2019-03-25T02:02:30.993Z,5.90
2019-03-25T02:03:30.973Z,5.87
2019-03-25T02:04:30.944Z,5.84
2019-03-25T02:05:30.940Z,5.87
2019-03-25T02:06:30.934Z,5.90
2019-03-25T02:07:30.924Z,5.91
2019-03-25T02:08:30.906Z,5.87
2019-03-25T02:09:30.901Z,5.91
2019-03-25T02:10:30.899Z,5.97
2019-03-25T02:11:30.878Z,6.02
2019-03-25T02:12:30.872Z,6.06
2019-03-25T02:13:30.863Z,6.06
2019-03-25T02:14:30.840Z,6.08
2019-03-25T02:15:30.840Z,6.16
2019-03-25T02:16:30.820Z,6.15
2019-03-25T02:17:30.811Z,6.18
2019-03-25T02:18:30.799Z,6.27
2019-03-25T02:19:30.793Z,6.30
2019-03-25T02:20:30.788Z,6.30
2019-03-25T02:21:30.769Z,6.42
2019-03-25T02:22:30.826Z,6.38
2019-03-25T02:23:30.750Z,6.42
2019-03-25T02:24:30.745Z,6.42
2019-03-25T02:25:30.726Z,6.61
2019-03-25T02:26:30.717Z,6.57
2019-03-25T02:27:30.708Z,6.57
2019-03-25T02:28:30.694Z,6.60
2019-03-25T02:29:30.695Z,6.63
2019-03-25T02:30:30.680Z,6.65
2019-03-25T02:31:30.673Z,6.63
2019-03-25T02:32:30.661Z,6.71
2019-03-25T02:33:30.642Z,6.65
2019-03-25T02:34:30.639Z,6.73
2019-03-25T02:35:30.625Z,6.78
2019-03-25T02:36:30.605Z,6.70
2019-03-25T02:37:30.609Z,6.65
2019-03-25T02:38:30.605Z,6.65
2019-03-25T02:39:30.586Z,6.75
2019-03-25T02:40:30.585Z,6.73
2019-03-25T02:41:30.566Z,6.70
2019-03-25T02:42:30.558Z,6.74
2019-03-25T02:43:30.538Z,6.73
2019-03-25T02:44:30.543Z,6.67
2019-03-25T02:45:30.529Z,6.68
2019-03-25T02:46:30.590Z,6.64
2019-03-25T02:47:30.495Z,6.71
2019-03-25T02:48:30.488Z,6.83
2019-03-25T02:49:30.475Z,6.81
2019-03-25T02:50:30.466Z,6.88
2019-03-25T02:51:30.459Z,6.86
2019-03-25T02:52:30.449Z,6.89
2019-03-25T02:53:30.451Z,6.99
2019-03-25T02:54:30.435Z,6.99
2019-03-25T02:55:41.432Z,7.01
2019-03-25T02:56:30.401Z,6.99
2019-03-25T02:57:30.403Z,7.08
2019-03-25T02:58:30.382Z,7.15
2019-03-25T02:59:30.377Z,7.13
2019-03-25T03:00:30.375Z,7.13
2019-03-25T03:01:30.355Z,7.21
2019-03-25T03:02:30.346Z,7.19
2019-03-25T03:03:30.349Z,7.22
2019-03-25T03:04:30.320Z,7.29
2019-03-25T03:05:30.326Z,7.29
2019-03-25T03:06:30.303Z,7.33
2019-03-25T03:07:30.297Z,7.37
2019-03-25T03:08:30.290Z,7.36
2019-03-25T03:09:30.279Z,7.36
2019-03-25T03:10:30.259Z,7.46
2019-03-25T03:11:30.257Z,7.47
2019-03-25T03:12:30.247Z,7.50
2019-03-25T03:13:30.235Z,7.54
2019-03-25T03:14:30.224Z,7.49
2019-03-25T03:15:30.219Z,7.57
2019-03-25T03:16:30.214Z,7.54
2019-03-25T03:17:30.202Z,7.61
2019-03-25T03:18:30.186Z,7.66
2019-03-25T03:19:30.172Z,7.62
2019-03-25T03:20:30.165Z,7.64
2019-03-25T03:21:30.162Z,7.66
2019-03-25T03:22:30.151Z,7.71
2019-03-25T03:23:30.139Z,7.73
2019-03-25T03:24:30.130Z,7.76
2019-03-25T03:25:30.117Z,7.73
2019-03-25T03:26:30.120Z,7.77
2019-03-25T03:27:30.217Z,7.76
2019-03-25T03:28:30.082Z,7.78
2019-03-25T03:29:30.076Z,7.83
2019-03-25T03:30:30.067Z,7.87
2019-03-25T03:31:30.058Z,7.86
2019-03-25T03:32:30.057Z,7.84
2019-03-25T03:33:30.063Z,7.81
2019-03-25T03:34:30.042Z,7.87
2019-03-25T03:35:30.023Z,7.94
2019-03-25T03:36:30.021Z,7.86
2019-03-25T03:37:30.016Z,7.88
2019-03-25T03:38:29.991Z,7.95
2019-03-25T03:39:29.977Z,7.99
2019-03-25T03:40:29.984Z,7.98
2019-03-25T03:41:29.954Z,8.01
2019-03-25T03:42:29.962Z,7.98
2019-03-25T03:43:29.947Z,7.96
2019-03-25T03:44:29.930Z,7.99
2019-03-25T03:45:29.938Z,8.01
2019-03-25T03:46:29.927Z,8.10
2019-03-25T03:47:29.918Z,8.01
2019-03-25T03:48:29.907Z,8.05
2019-03-25T03:49:29.901Z,8.09
2019-03-25T03:50:29.890Z,8.05
2019-03-25T03:51:29.879Z,8.05
2019-03-25T03:52:29.859Z,8.05
2019-03-25T03:53:29.856Z,8.10
2019-03-25T03:54:29.843Z,8.10
2019-03-25T03:55:29.834Z,8.12
2019-03-25T03:56:29.819Z,8.10
2019-03-25T03:57:29.814Z,8.10
2019-03-25T03:58:29.808Z,8.04
2019-03-25T03:59:29.795Z,8.14
2019-03-25T04:00:29.782Z,8.13
2019-03-25T04:01:29.797Z,8.16
2019-03-25T04:02:29.762Z,8.17
2019-03-25T04:03:29.762Z,8.26
2019-03-25T04:04:29.770Z,8.24
2019-03-25T04:05:29.739Z,8.26
2019-03-25T04:06:29.741Z,8.20
2019-03-25T04:07:50.797Z,8.24
2019-03-25T04:08:29.714Z,8.26
2019-03-25T04:09:29.699Z,8.21
2019-03-25T04:10:29.697Z,8.29
2019-03-25T04:11:29.677Z,8.31
2019-03-25T04:12:29.666Z,8.31
2019-03-25T04:13:29.656Z,8.29
2019-03-25T04:14:30.161Z,8.31
2019-03-25T04:15:29.670Z,8.24
2019-03-25T04:16:29.645Z,8.29
2019-03-25T04:17:29.630Z,8.29
2019-03-25T04:18:29.615Z,8.31
2019-03-25T04:19:29.610Z,8.29
2019-03-25T04:20:29.599Z,8.38
2019-03-25T04:21:29.578Z,8.38
2019-03-25T04:22:29.594Z,8.38
2019-03-25T04:23:29.585Z,8.44
2019-03-25T04:24:29.563Z,8.34
2019-03-25T04:25:29.549Z,8.41
2019-03-25T04:26:29.759Z,8.42
2019-03-25T04:27:29.549Z,8.37
2019-03-25T04:28:29.515Z,8.41
2019-03-25T04:29:29.511Z,8.34
2019-03-25T04:30:29.503Z,8.35
2019-03-25T04:31:29.500Z,8.38
2019-03-25T04:32:29.495Z,8.39
2019-03-25T04:33:29.484Z,8.35
2019-03-25T04:34:29.466Z,8.42
2019-03-25T04:35:29.450Z,8.38
2019-03-25T04:36:29.455Z,8.44
2019-03-25T04:37:29.436Z,8.46
2019-03-25T04:38:29.435Z,8.50
2019-03-25T04:39:29.444Z,8.46
2019-03-25T04:40:29.411Z,8.53
2019-03-25T04:41:29.393Z,8.52
2019-03-25T04:42:29.392Z,8.53
2019-03-25T04:43:29.384Z,8.52
2019-03-25T04:44:29.375Z,8.55
2019-03-25T04:45:29.354Z,8.53
2019-03-25T04:46:29.353Z,8.55
2019-03-25T04:47:30.172Z,8.55
2019-03-25T04:48:30.172Z,8.55
2019-03-25T04:49:29.322Z,8.60
2019-03-25T04:50:29.309Z,8.62
2019-03-25T04:51:29.299Z,8.55
2019-03-25T04:52:29.306Z,8.68
2019-03-25T04:53:29.284Z,8.59
2019-03-25T04:54:30.198Z,8.65
2019-03-25T04:55:29.282Z,8.55
2019-03-25T04:56:39.038Z,8.56
2019-03-25T04:57:29.245Z,8.67
2019-03-25T04:58:29.242Z,8.67
2019-03-25T04:59:29.237Z,8.71
2019-03-25T05:00:29.232Z,8.68
2019-03-25T05:01:29.212Z,8.77
2019-03-25T05:02:29.229Z,8.71
2019-03-25T05:03:29.194Z,8.70
2019-03-25T05:04:29.191Z,8.67
2019-03-25T05:05:29.188Z,8.65
2019-03-25T05:06:29.177Z,8.71
2019-03-25T05:07:29.155Z,8.70
2019-03-25T05:08:29.151Z,8.70
2019-03-25T05:09:29.135Z,8.68
2019-03-25T05:10:29.133Z,8.62
2019-03-25T05:11:30.896Z,8.56
2019-03-25T05:12:29.117Z,8.60
2019-03-25T05:13:29.106Z,8.56
2019-03-25T05:14:29.093Z,8.56
2019-03-25T05:15:29.096Z,8.53
2019-03-25T05:16:29.085Z,8.56
2019-03-25T05:17:29.082Z,8.56
2019-03-25T05:18:29.063Z,8.57
2019-03-25T05:19:29.053Z,8.55
2019-03-25T05:20:29.051Z,8.57
2019-03-25T05:21:29.044Z,8.57
2019-03-25T05:22:29.023Z,8.56
2019-03-25T05:23:29.037Z,8.52
2019-03-25T05:24:29.020Z,8.53
2019-03-25T05:25:29.000Z,8.56
2019-03-25T05:26:28.987Z,8.57
2019-03-25T05:27:28.977Z,8.60
2019-03-25T05:28:28.977Z,8.53
2019-03-25T05:29:28.955Z,8.53
2019-03-25T05:30:28.982Z,8.56
2019-03-25T05:31:28.945Z,8.52
2019-03-25T05:32:28.935Z,8.42
2019-03-25T05:33:28.926Z,8.41
2019-03-25T05:34:30.692Z,8.35
2019-03-25T05:35:28.910Z,8.31
2019-03-25T05:36:28.891Z,8.34
2019-03-25T05:37:28.898Z,8.37
2019-03-25T05:38:28.891Z,8.41
2019-03-25T05:39:28.878Z,8.29
2019-03-25T05:40:28.857Z,8.37
2019-03-25T05:41:28.859Z,8.41
2019-03-25T05:42:28.844Z,8.37
2019-03-25T05:43:28.837Z,8.32
2019-03-25T05:44:28.840Z,8.49
2019-03-25T05:45:28.819Z,8.37
2019-03-25T05:46:28.811Z,8.31
2019-03-25T05:47:28.797Z,8.35
2019-03-25T05:48:28.792Z,8.41
2019-03-25T05:49:28.781Z,8.34
2019-03-25T05:50:28.774Z,8.34
2019-03-25T05:51:28.765Z,8.16
2019-03-25T05:52:28.765Z,8.04
2019-03-25T05:53:28.752Z,7.87
2019-03-25T05:54:28.728Z,7.69
2019-03-25T05:55:28.724Z,7.66
2019-03-25T05:56:28.720Z,7.57
2019-03-25T05:57:28.712Z,7.40
2019-03-25T05:58:28.711Z,7.33
2019-03-25T05:59:28.690Z,7.18
2019-03-25T06:00:28.677Z,7.16
2019-03-25T06:01:28.666Z,7.13
2019-03-25T06:02:28.667Z,7.13
2019-03-25T06:03:28.659Z,7.22
2019-03-25T06:04:28.640Z,7.13
2019-03-25T06:05:28.626Z,7.10
2019-03-25T06:06:28.615Z,7.11
2019-03-25T06:07:28.616Z,7.13
2019-03-25T06:08:28.611Z,7.11
2019-03-25T06:09:28.594Z,7.13
2019-03-25T06:10:28.577Z,7.07
2019-03-25T06:11:28.573Z,7.06
2019-03-25T06:12:28.556Z,7.11
2019-03-25T06:13:28.552Z,7.19
2019-03-25T06:14:28.537Z,7.15
2019-03-25T06:15:28.532Z,7.13
2019-03-25T06:16:28.528Z,7.13
2019-03-25T06:17:28.512Z,7.11
2019-03-25T06:18:28.498Z,7.13
2019-03-25T06:19:28.504Z,7.16
2019-03-25T06:20:28.475Z,7.15
2019-03-25T06:21:28.469Z,7.08
2019-03-25T06:22:28.460Z,7.01
2019-03-25T06:23:28.461Z,7.07
2019-03-25T06:24:28.445Z,7.10
2019-03-25T06:25:28.433Z,7.13
2019-03-25T06:26:28.416Z,7.10
2019-03-25T06:27:28.414Z,7.08
2019-03-25T06:28:28.395Z,7.08
2019-03-25T06:29:28.397Z,7.10
2019-03-25T06:30:28.384Z,7.18
2019-03-25T06:31:28.374Z,7.19
2019-03-25T06:32:28.361Z,7.13
2019-03-25T06:33:28.345Z,7.26
2019-03-25T06:34:28.353Z,7.34
2019-03-25T06:35:28.335Z,7.33
2019-03-25T06:36:28.323Z,7.31
2019-03-25T06:37:28.315Z,7.33
2019-03-25T06:38:28.296Z,7.43
2019-03-25T06:39:28.295Z,7.44
2019-03-25T06:40:28.276Z,7.46
2019-03-25T06:41:28.264Z,7.50
2019-03-25T06:42:28.256Z,7.46
2019-03-25T06:43:28.253Z,7.50
2019-03-25T06:44:28.241Z,7.54
2019-03-25T06:45:28.231Z,7.50
2019-03-25T06:46:28.227Z,7.49
2019-03-25T06:47:28.217Z,7.57
2019-03-25T06:48:28.205Z,7.52
2019-03-25T06:49:28.194Z,7.50
2019-03-25T06:50:28.175Z,7.55
2019-03-25T06:51:28.173Z,7.55
2019-03-25T06:52:28.159Z,7.60
2019-03-25T06:53:28.153Z,7.62
2019-03-25T06:54:28.151Z,7.66
2019-03-25T06:55:28.136Z,7.69
2019-03-25T06:56:28.129Z,7.73
2019-03-25T06:57:28.115Z,7.71
2019-03-25T06:58:28.127Z,7.69
2019-03-25T06:59:28.100Z,7.83
2019-03-25T07:00:28.087Z,7.84
2019-03-25T07:01:28.074Z,8.02
2019-03-25T07:02:28.065Z,8.06
2019-03-25T07:03:29.860Z,8.06
2019-03-25T07:04:28.048Z,8.04
2019-03-25T07:05:28.033Z,8.04
2019-03-25T07:06:28.026Z,8.09
2019-03-25T07:07:28.032Z,8.13
2019-03-25T07:08:28.010Z,8.04
2019-03-25T07:09:28.001Z,8.12
2019-03-25T07:10:27.987Z,8.14
2019-03-25T07:11:27.980Z,8.06
2019-03-25T07:12:27.990Z,8.24
2019-03-25T07:13:27.964Z,8.29
2019-03-25T07:14:27.949Z,8.24
2019-03-25T07:15:27.948Z,8.34
2019-03-25T07:16:27.936Z,8.42
2019-03-25T07:17:27.947Z,8.44
2019-03-25T07:18:27.916Z,8.50
2019-03-25T07:19:27.904Z,8.63
2019-03-25T07:20:27.898Z,8.80
2019-03-25T07:21:27.886Z,8.78
2019-03-25T07:22:27.919Z,8.85
2019-03-25T07:23:27.874Z,8.81
2019-03-25T07:24:27.869Z,8.78
2019-03-25T07:25:27.854Z,8.78
2019-03-25T07:26:27.848Z,8.80
2019-03-25T07:27:36.263Z,8.67
2019-03-25T07:28:27.837Z,8.63
2019-03-25T07:29:27.824Z,8.68
2019-03-25T07:30:27.816Z,8.63
2019-03-25T07:31:27.800Z,8.65
2019-03-25T07:32:27.794Z,8.47
2019-03-25T07:33:27.781Z,8.52
2019-03-25T07:34:27.772Z,8.53
2019-03-25T07:35:27.762Z,8.50
2019-03-25T07:36:27.757Z,8.52
2019-03-25T07:37:27.752Z,8.52
2019-03-25T07:38:27.738Z,8.41
2019-03-25T07:39:27.733Z,8.41
2019-03-25T07:40:27.725Z,8.56
2019-03-25T07:41:27.782Z,8.70
2019-03-25T07:42:27.705Z,8.86
2019-03-25T07:43:27.697Z,8.81
2019-03-25T07:44:27.692Z,8.81
2019-03-25T07:45:27.678Z,9.01
2019-03-25T07:46:27.669Z,9.14
2019-03-25T07:47:27.660Z,9.18
2019-03-25T07:48:27.647Z,9.30
2019-03-25T07:49:27.649Z,9.34
2019-03-25T07:50:27.639Z,9.44
2019-03-25T07:51:27.632Z,9.57
2019-03-25T07:52:27.617Z,9.65
2019-03-25T07:53:27.623Z,9.72
2019-03-25T07:54:27.620Z,9.85
2019-03-25T07:55:27.596Z,9.84
2019-03-25T07:56:27.585Z,10.09
2019-03-25T07:57:27.576Z,10.26
2019-03-25T07:58:27.591Z,10.42
2019-03-25T07:59:27.582Z,10.23
2019-03-25T08:00:27.561Z,10.24
2019-03-25T08:01:27.548Z,10.17
2019-03-25T08:02:27.534Z,10.10
2019-03-25T08:03:27.534Z,10.10
2019-03-25T08:04:27.525Z,10.08
2019-03-25T08:05:27.547Z,9.94
2019-03-25T08:06:27.516Z,9.81
2019-03-25T08:07:27.507Z,9.77
2019-03-25T08:08:27.518Z,9.73
2019-03-25T08:09:27.492Z,9.60
2019-03-25T08:10:27.483Z,9.65
2019-03-25T08:11:27.474Z,9.50
2019-03-25T08:12:27.469Z,9.52
2019-03-25T08:13:27.492Z,9.48
2019-03-25T08:14:27.458Z,9.44
2019-03-25T08:15:27.470Z,9.48
2019-03-25T08:16:27.435Z,9.41
2019-03-25T08:17:27.426Z,9.48
2019-03-25T08:18:27.422Z,9.48
2019-03-25T08:19:27.407Z,9.51
2019-03-25T08:20:27.404Z,9.50
2019-03-25T08:21:27.407Z,9.48
2019-03-25T08:22:27.393Z,9.50
2019-03-25T08:23:27.382Z,9.41
2019-03-25T08:24:27.375Z,9.37
2019-03-25T08:25:27.369Z,9.37
2019-03-25T08:26:27.350Z,9.50
2019-03-25T08:27:27.356Z,9.47
2019-03-25T08:28:27.339Z,9.41
2019-03-25T08:29:27.332Z,9.47
2019-03-25T08:30:27.320Z,9.54
2019-03-25T08:31:27.319Z,9.59
2019-03-25T08:32:27.306Z,9.52
2019-03-25T08:33:27.301Z,9.50
2019-03-25T08:34:27.285Z,9.50
2019-03-25T08:35:27.283Z,9.48
2019-03-25T08:36:27.276Z,9.59
2019-03-25T08:37:27.271Z,9.50
2019-03-25T08:38:27.257Z,9.45
2019-03-25T08:39:27.246Z,9.47
2019-03-25T08:40:27.243Z,9.51
2019-03-25T08:41:27.240Z,9.62
2019-03-25T08:42:27.230Z,9.57
2019-03-25T08:43:27.225Z,9.60
2019-03-25T08:44:27.217Z,9.72
2019-03-25T08:45:27.199Z,9.54
2019-03-25T08:46:27.194Z,9.54
2019-03-25T08:47:27.195Z,9.52
2019-03-25T08:48:27.182Z,9.59
2019-03-25T08:49:27.167Z,9.54
2019-03-25T08:50:27.168Z,9.59
2019-03-25T08:51:27.168Z,9.75
2019-03-25T08:52:27.149Z,9.65
2019-03-25T08:53:27.140Z,9.66
2019-03-25T08:54:27.138Z,9.69
2019-03-25T08:55:27.132Z,9.81
2019-03-25T08:56:27.121Z,9.80
2019-03-25T08:57:27.114Z,10.01
2019-03-25T08:58:27.103Z,10.06
2019-03-25T08:59:27.096Z,10.10
2019-03-25T09:00:27.087Z,10.16
2019-03-25T09:01:27.079Z,10.05
2019-03-25T09:02:27.073Z,10.16
2019-03-25T09:03:27.068Z,10.27
2019-03-25T09:04:27.055Z,10.30
2019-03-25T09:05:27.049Z,10.46
2019-03-25T09:06:27.044Z,10.68
2019-03-25T09:07:27.038Z,10.70
2019-03-25T09:08:27.027Z,10.60
2019-03-25T09:09:27.018Z,10.61
2019-03-25T09:10:27.021Z,10.57
2019-03-25T09:11:27.006Z,10.76
2019-03-25T09:12:26.997Z,10.70
2019-03-25T09:13:26.989Z,10.78
2019-03-25T09:14:26.990Z,10.80
2019-03-25T09:15:26.978Z,10.87
2019-03-25T09:16:26.973Z,10.90
2019-03-25T09:17:26.968Z,10.86
2019-03-25T09:18:26.963Z,10.76
2019-03-25T09:19:26.949Z,10.90
2019-03-25T09:20:26.943Z,10.79
2019-03-25T09:21:26.941Z,10.72
2019-03-25T09:22:26.937Z,10.76
2019-03-25T09:23:26.922Z,10.73
2019-03-25T09:24:26.922Z,10.62
2019-03-25T09:25:26.905Z,10.49
2019-03-25T09:26:26.901Z,10.43
2019-03-25T09:27:26.897Z,10.36
2019-03-25T09:28:26.892Z,10.24
2019-03-25T09:29:26.889Z,10.26
2019-03-25T09:30:26.875Z,10.27
2019-03-25T09:31:36.430Z,10.24
2019-03-25T09:32:27.709Z,10.18
2019-03-25T09:33:26.852Z,10.23
2019-03-25T09:34:26.847Z,10.10
2019-03-25T09:35:26.834Z,10.06
2019-03-25T09:36:26.829Z,10.06
2019-03-25T09:37:26.832Z,10.10
2019-03-25T09:38:26.815Z,10.17
2019-03-25T09:39:26.823Z,10.16
2019-03-25T09:40:26.803Z,10.09
2019-03-25T09:41:26.806Z,10.20
2019-03-25T09:42:26.788Z,10.16
2019-03-25T09:43:26.781Z,10.14
2019-03-25T09:44:26.771Z,10.28
2019-03-25T09:45:26.768Z,10.41
2019-03-25T09:46:26.759Z,10.45
2019-03-25T09:47:26.760Z,10.41
2019-03-25T09:48:26.748Z,10.48
2019-03-25T09:49:26.738Z,10.57
2019-03-25T09:50:26.729Z,10.68
2019-03-25T09:51:26.738Z,10.68
2019-03-25T09:52:37.934Z,10.72
2019-03-25T09:53:26.709Z,10.68
2019-03-25T09:54:26.716Z,10.67
2019-03-25T09:55:26.702Z,10.75
2019-03-25T09:56:26.693Z,10.65
2019-03-25T09:57:26.677Z,10.68
2019-03-25T09:58:35.764Z,10.83
2019-03-25T09:59:26.663Z,10.93
2019-03-25T10:00:26.657Z,10.91
2019-03-25T10:01:26.651Z,10.95
2019-03-25T10:02:26.660Z,10.94
2019-03-25T10:03:26.632Z,10.95
2019-03-25T10:04:26.629Z,11.01
2019-03-25T10:05:26.628Z,10.97
2019-03-25T10:06:26.618Z,10.93
2019-03-25T10:07:28.353Z,10.94
2019-03-25T10:08:26.600Z,10.90
2019-03-25T10:09:26.610Z,10.93
2019-03-25T10:10:26.592Z,11.03
2019-03-25T10:11:26.583Z,11.09
2019-03-25T10:12:26.577Z,11.16
2019-03-25T10:13:26.571Z,11.25
2019-03-25T10:14:26.564Z,11.27
2019-03-25T10:15:26.563Z,11.30
2019-03-25T10:16:26.562Z,11.23
2019-03-25T10:17:26.535Z,11.22
2019-03-25T10:18:26.536Z,11.25
2019-03-25T10:19:26.531Z,11.25
2019-03-25T10:20:26.529Z,11.30
2019-03-25T10:21:26.511Z,11.45
2019-03-25T10:22:26.508Z,11.52
2019-03-25T10:23:26.500Z,11.45
2019-03-25T10:24:28.045Z,11.40
2019-03-25T10:25:26.492Z,11.49
2019-03-25T10:26:26.486Z,11.40
2019-03-25T10:27:26.476Z,11.40
2019-03-25T10:28:26.473Z,11.56
2019-03-25T10:29:26.460Z,11.49
2019-03-25T10:30:26.454Z,11.66
2019-03-25T10:31:26.459Z,11.73
2019-03-25T10:32:26.446Z,11.66
2019-03-25T10:33:26.439Z,11.66
2019-03-25T10:34:26.432Z,11.74
2019-03-25T10:35:26.418Z,11.67
2019-03-25T10:36:26.415Z,11.64
2019-03-25T10:37:26.415Z,11.66
2019-03-25T10:38:26.406Z,11.59
2019-03-25T10:39:26.399Z,11.45
2019-03-25T10:40:26.393Z,11.48
2019-03-25T10:41:26.384Z,11.45
2019-03-25T10:42:26.381Z,11.52
2019-03-25T10:43:26.387Z,11.59
2019-03-25T10:44:26.369Z,11.66
2019-03-25T10:45:26.359Z,11.62
2019-03-25T10:46:26.359Z,11.61
2019-03-25T10:47:26.349Z,11.79
2019-03-25T10:48:26.349Z,11.69
2019-03-25T10:49:26.332Z,11.74
2019-03-25T10:50:26.332Z,11.71
2019-03-25T10:51:26.341Z,11.73
2019-03-25T10:52:26.326Z,11.56
2019-03-25T10:53:26.318Z,11.64
2019-03-25T10:54:26.337Z,11.43
2019-03-25T10:55:26.300Z,11.15
2019-03-25T10:56:26.293Z,11.09
2019-03-25T10:57:26.297Z,10.91
2019-03-25T10:58:26.286Z,10.91
2019-03-25T10:59:26.281Z,10.70
2019-03-25T11:00:26.268Z,10.72
2019-03-25T11:01:26.260Z,10.80
2019-03-25T11:02:26.258Z,10.85
2019-03-25T11:03:26.261Z,10.94
2019-03-25T11:04:26.244Z,10.87
2019-03-25T11:05:26.240Z,10.86
2019-03-25T11:06:26.227Z,10.93
2019-03-25T11:07:26.320Z,10.90
2019-03-25T11:08:26.217Z,10.86
2019-03-25T11:09:26.227Z,10.76
2019-03-25T11:10:26.208Z,10.76
2019-03-25T11:11:26.199Z,10.80
2019-03-25T11:12:26.196Z,10.70
2019-03-25T11:13:26.182Z,10.60
2019-03-25T11:14:26.177Z,10.64
2019-03-25T11:15:26.190Z,10.61
2019-03-25T11:16:26.174Z,10.62
2019-03-25T11:17:26.170Z,10.31
2019-03-25T11:18:26.143Z,10.21
2019-03-25T11:19:26.154Z,10.03
2019-03-25T11:20:26.132Z,9.96
2019-03-25T11:21:26.129Z,10.03
2019-03-25T11:22:26.116Z,10.05
2019-03-25T11:23:26.119Z,10.05
2019-03-25T11:24:26.105Z,10.09
2019-03-25T11:25:26.102Z,10.18
2019-03-25T11:26:26.087Z,10.18
2019-03-25T11:27:26.094Z,10.17
2019-03-25T11:28:26.079Z,10.18
2019-03-25T11:29:26.093Z,10.20
2019-03-25T11:30:26.067Z,10.03
2019-03-25T11:31:26.056Z,10.18
2019-03-25T11:32:26.048Z,10.20
2019-03-25T11:33:26.064Z,10.24
2019-03-25T11:34:26.035Z,10.26
2019-03-25T11:35:26.035Z,10.26
2019-03-25T11:36:26.025Z,10.31
2019-03-25T11:37:26.008Z,10.46
2019-03-25T11:38:26.020Z,10.49
2019-03-25T11:39:26.005Z,10.61
2019-03-25T11:40:26.007Z,10.65
2019-03-25T11:41:25.985Z,10.65
2019-03-25T11:42:25.975Z,10.70
2019-03-25T11:43:25.968Z,10.75
2019-03-25T11:44:25.975Z,10.87
2019-03-25T11:45:25.957Z,10.93
2019-03-25T11:46:25.951Z,10.95
2019-03-25T11:47:25.937Z,11.00
2019-03-25T11:48:25.957Z,11.05
2019-03-25T11:49:25.927Z,11.00
2019-03-25T11:50:25.921Z,10.98
2019-03-25T11:51:25.898Z,11.09
2019-03-25T11:52:25.901Z,11.08
2019-03-25T11:53:25.901Z,11.05
2019-03-25T11:54:25.891Z,11.04
2019-03-25T11:55:25.902Z,11.23
2019-03-25T11:56:25.892Z,11.19
2019-03-25T11:57:25.862Z,11.23
2019-03-25T11:58:25.853Z,11.28
2019-03-25T11:59:25.862Z,11.48
2019-03-25T12:00:25.844Z,11.48
2019-03-25T12:01:25.840Z,11.51
2019-03-25T12:02:25.848Z,11.56
2019-03-25T12:03:25.862Z,11.51
2019-03-25T12:04:25.812Z,11.70
2019-03-25T12:05:25.805Z,11.77
2019-03-25T12:06:25.808Z,11.88
2019-03-25T12:07:25.796Z,11.85
2019-03-25T12:08:25.786Z,11.84
2019-03-25T12:09:25.792Z,11.82
2019-03-25T12:10:25.777Z,11.71
2019-03-25T12:11:25.766Z,11.58
2019-03-25T12:12:25.757Z,11.54
2019-03-25T12:13:25.751Z,11.41
2019-03-25T12:14:25.745Z,11.36
2019-03-25T12:15:25.735Z,11.09
2019-03-25T12:16:25.731Z,11.03
2019-03-25T12:17:25.723Z,11.04
2019-03-25T12:18:25.715Z,10.91
2019-03-25T12:19:25.720Z,10.67
2019-03-25T12:20:25.707Z,10.75
2019-03-25T12:21:25.702Z,10.49
2019-03-25T12:22:25.693Z,10.55
2019-03-25T12:23:26.520Z,10.43
2019-03-25T12:24:25.698Z,10.39
2019-03-25T12:25:25.669Z,10.35
2019-03-25T12:26:25.660Z,10.30
2019-03-25T12:27:25.726Z,10.24
2019-03-25T12:28:25.647Z,10.21
2019-03-25T12:29:30.290Z,10.24
2019-03-25T12:30:25.625Z,10.27
2019-03-25T12:31:25.629Z,10.46
2019-03-25T12:32:25.633Z,10.57
2019-03-25T12:33:25.614Z,10.57
2019-03-25T12:34:25.627Z,10.60
2019-03-25T12:35:25.592Z,10.60
2019-03-25T12:36:25.590Z,10.67
2019-03-25T12:37:25.585Z,10.73
2019-03-25T12:38:25.572Z,10.65
2019-03-25T12:39:25.567Z,10.78
2019-03-25T12:40:25.569Z,10.90
2019-03-25T12:41:25.566Z,10.93
2019-03-25T12:42:25.547Z,10.97
2019-03-25T12:43:25.542Z,11.12
2019-03-25T12:44:25.538Z,11.28
2019-03-25T12:45:25.526Z,11.22
2019-03-25T12:46:25.518Z,11.31
2019-03-25T12:47:25.503Z,11.33
2019-03-25T12:48:25.504Z,11.30
2019-03-25T12:49:25.503Z,11.23
2019-03-25T12:50:25.485Z,11.20
2019-03-25T12:51:25.491Z,11.22
2019-03-25T12:52:25.473Z,11.15
2019-03-25T12:53:25.469Z,11.15
2019-03-25T12:54:25.466Z,11.16
2019-03-25T12:55:25.454Z,11.08
2019-03-25T12:56:25.448Z,11.00
2019-03-25T12:57:25.439Z,10.98
2019-03-25T12:58:25.434Z,11.05
2019-03-25T12:59:25.439Z,11.11
2019-03-25T13:00:25.422Z,11.15
2019-03-25T13:01:25.432Z,11.28
2019-03-25T13:02:25.405Z,11.19
2019-03-25T13:03:25.398Z,11.20
2019-03-25T13:04:25.395Z,11.31
2019-03-25T13:05:25.388Z,11.31
2019-03-25T13:06:25.388Z,11.43
2019-03-25T13:07:25.365Z,11.55
2019-03-25T13:08:33.132Z,11.46
2019-03-25T13:09:25.357Z,11.54